CYMX/YMX METAR and TAF weather

Enter ICAO airport designator
Station Type Date Time Source
CYMX METAR 2018/10/21 04:00 UTC NOAA

CYMX 210400Z 23003KT 200V270 25SM FEW070 01/M02 A2967 RMK AC2 SLP050


Station Type Date Time Source
CYMX Decoded METAR 2018/10/21 04:00 UTC NOAA

Montreal / Mirabel, Canada (CYMX) 45-41N 074-02W
Oct 21, 2018 - 12:00 AM EDT / 2018.10.21 0400 UTC
Wind: from the SW (230 degrees) at 3 MPH (3 KT) (direction variable):0
Visibility: 25 mile(s):0
Sky conditions: mostly clear
Temperature: 33 F (1 C)
Dew Point: 28 F (-2 C)
Relative Humidity: 80%
Pressure (altimeter): 29.67 in. Hg (1004 hPa)
ob: CYMX 210400Z 23003KT 200V270 25SM FEW070 01/M02 A2967 RMK AC2 SLP050
cycle: 4

Station Type Date Time Source
CYMX TAF 2018/10/20 18:42 UTC NOAA

TAF CYMX 201738Z 2018/2118 26015G30KT P6SM BKN040
TEMPO 2018/2022 P6SM -SHRA
BECMG 2020/2022 27010G20KT
FM210200 29008KT P6SM SCT040
FM211600 29012G22KT P6SM BKN040
RMK NXT FCST BY 210000Z


Example: see airport list